createdAt,value
2018-02-08T00:01:57.927Z,65.60
2018-02-08T00:04:26.760Z,67.10
2018-02-08T00:06:54.805Z,67.00
2018-02-08T00:09:22.860Z,66.80
2018-02-08T00:11:50.900Z,66.50
2018-02-08T00:14:18.972Z,65.40
2018-02-08T00:16:47.785Z,66.20
2018-02-08T00:19:16.600Z,65.70
2018-02-08T00:21:44.644Z,65.70
2018-02-08T00:24:12.718Z,65.80
2018-02-08T00:26:40.761Z,65.60
2018-02-08T00:29:08.832Z,65.10
2018-02-08T00:31:36.891Z,65.20
2018-02-08T00:34:05.718Z,65.20
2018-02-08T00:36:33.776Z,65.20
2018-02-08T00:39:02.577Z,65.80
2018-02-08T00:41:31.415Z,66.10
2018-02-08T00:43:59.449Z,66.10
2018-02-08T00:46:27.507Z,65.80
2018-02-08T00:48:55.551Z,66.10
2018-02-08T00:51:23.611Z,66.70
2018-02-08T00:53:52.455Z,66.40
2018-02-08T00:56:20.520Z,66.20
2018-02-08T00:58:49.320Z,66.10
2018-02-08T01:01:17.396Z,66.10
2018-02-08T01:03:46.204Z,66.70
2018-02-08T01:06:15.025Z,66.70
2018-02-08T01:08:43.065Z,66.70
2018-02-08T01:11:11.135Z,67.50
2018-02-08T01:13:40.920Z,66.10
2018-02-08T01:16:10.135Z,66.10
2018-02-08T01:18:38.184Z,66.30
2018-02-08T01:21:07.130Z,66.30
2018-02-08T01:23:35.204Z,66.20
2018-02-08T01:26:03.278Z,66.40
2018-02-08T01:28:31.255Z,66.60
2018-02-08T01:30:59.275Z,66.40
2018-02-08T01:33:27.284Z,66.00
2018-02-08T01:35:55.286Z,66.00
2018-02-08T01:38:24.060Z,67.10
2018-02-08T01:40:52.091Z,67.00
2018-02-08T01:43:20.087Z,67.40
2018-02-08T01:45:48.104Z,67.00
2018-02-08T01:48:16.110Z,66.70
2018-02-08T01:50:44.888Z,65.50
2018-02-08T01:53:12.897Z,65.50
2018-02-08T01:55:41.663Z,65.90
2018-02-08T01:58:09.664Z,65.80
2018-02-08T02:00:38.445Z,66.00
2018-02-08T02:03:06.448Z,66.00
2018-02-08T02:05:35.219Z,67.70
2018-02-08T02:08:03.227Z,67.60
2018-02-08T02:10:31.243Z,67.10
2018-02-08T02:12:59.241Z,67.30
2018-02-08T02:15:27.309Z,68.20
2018-02-08T02:17:55.315Z,68.40
2018-02-08T02:20:23.322Z,69.00
2018-02-08T02:22:51.323Z,69.00
2018-02-08T02:25:19.336Z,69.20
2018-02-08T02:27:47.336Z,69.70
2018-02-08T02:30:15.359Z,70.40
2018-02-08T02:32:43.396Z,70.10
2018-02-08T02:35:12.141Z,69.20
2018-02-08T02:37:40.168Z,69.10
2018-02-08T02:40:08.927Z,69.80
2018-02-08T02:42:36.923Z,69.70
2018-02-08T02:45:04.937Z,69.60
2018-02-08T02:47:32.947Z,68.90
2018-02-08T02:50:01.873Z,68.60
2018-02-08T02:52:29.875Z,68.50
2018-02-08T02:54:57.892Z,69.20
2018-02-08T02:57:25.889Z,69.30
2018-02-08T02:59:53.912Z,69.30
2018-02-08T03:02:21.924Z,68.40
2018-02-08T03:04:50.692Z,68.90
2018-02-08T03:07:20.259Z,69.10
2018-02-08T03:09:48.277Z,69.10
2018-02-08T03:12:16.272Z,69.20
2018-02-08T03:14:44.284Z,69.30
2018-02-08T03:17:13.068Z,70.40
2018-02-08T03:19:41.068Z,70.30
2018-02-08T03:22:09.848Z,72.00
2018-02-08T03:24:37.860Z,71.80
2018-02-08T03:27:07.192Z,71.90
2018-02-08T03:29:35.208Z,71.90
2018-02-08T03:32:03.212Z,71.90
2018-02-08T03:34:31.207Z,71.90
2018-02-08T03:36:59.987Z,72.40
2018-02-08T03:39:28.263Z,71.90
2018-02-08T03:41:56.259Z,72.20
2018-02-08T03:44:24.272Z,71.90
2018-02-08T03:46:53.051Z,72.60
2018-02-08T03:49:21.054Z,72.60
2018-02-08T03:51:49.843Z,73.30
2018-02-08T03:54:17.858Z,73.20
2018-02-08T03:56:45.851Z,73.00
2018-02-08T03:59:13.882Z,73.10
2018-02-08T04:01:41.883Z,73.40
2018-02-08T04:04:10.644Z,74.20
2018-02-08T04:06:38.654Z,74.00
2018-02-08T04:09:06.660Z,73.70
2018-02-08T04:11:34.673Z,72.70
2018-02-08T04:14:02.690Z,72.80
2018-02-08T04:16:30.696Z,73.10
2018-02-08T04:18:59.468Z,73.70
2018-02-08T04:21:27.488Z,73.60
2018-02-08T04:23:56.483Z,73.10
2018-02-08T04:26:25.251Z,73.50
2018-02-08T04:28:53.271Z,72.90
2018-02-08T04:31:22.054Z,74.80
2018-02-08T04:33:50.043Z,74.00
2018-02-08T04:36:18.073Z,74.80
2018-02-08T04:38:57.984Z,76.00
2018-02-08T04:41:37.971Z,76.00
2018-02-08T04:44:23.436Z,77.10
2018-02-08T04:49:57.104Z,77.00
2018-02-08T04:52:25.889Z,77.50
2018-02-08T04:54:53.907Z,77.90
2018-02-08T04:57:22.672Z,77.90
2018-02-08T04:59:50.688Z,77.70
2018-02-08T05:02:20.088Z,77.60
2018-02-08T05:04:48.087Z,77.40
2018-02-08T05:07:16.869Z,77.30
2018-02-08T05:09:44.879Z,78.00
2018-02-08T05:12:12.925Z,77.90
2018-02-08T05:14:40.930Z,77.80
2018-02-08T05:17:09.724Z,78.20
2018-02-08T05:19:38.490Z,77.70
2018-02-08T05:22:06.507Z,77.60
2018-02-08T05:24:35.288Z,76.10
2018-02-08T05:27:03.295Z,76.20
2018-02-08T05:29:32.103Z,77.90
2018-02-08T05:32:00.893Z,77.90
2018-02-08T05:34:29.667Z,76.80
2018-02-08T05:36:58.503Z,76.60
2018-02-08T05:39:27.279Z,74.40
2018-02-08T05:41:55.300Z,74.20
2018-02-08T05:44:23.315Z,74.00
2018-02-08T05:46:51.347Z,74.00
2018-02-08T05:49:20.107Z,74.30
2018-02-08T05:51:48.124Z,74.30
2018-02-08T05:54:16.919Z,76.10
2018-02-08T05:56:44.923Z,76.10
2018-02-08T05:59:13.708Z,74.50
2018-02-08T06:01:41.732Z,74.50
2018-02-08T06:04:09.732Z,73.90
2018-02-08T06:06:37.746Z,74.30
2018-02-08T06:09:05.748Z,74.90
2018-02-08T06:11:34.515Z,75.70
2018-02-08T06:14:02.527Z,75.70
2018-02-08T06:16:30.532Z,76.00
2018-02-08T06:18:58.580Z,76.30
2018-02-08T06:21:26.547Z,76.70
2018-02-08T06:23:55.356Z,77.60
2018-02-08T06:26:23.356Z,77.60
2018-02-08T06:28:52.145Z,77.10
2018-02-08T06:31:20.153Z,77.60
2018-02-08T06:33:48.915Z,77.70
2018-02-08T06:36:16.932Z,77.50
2018-02-08T06:38:45.706Z,78.60
2018-02-08T06:41:13.712Z,78.50
2018-02-08T06:43:42.488Z,78.30
2018-02-08T06:46:12.514Z,78.10
2018-02-08T06:48:40.507Z,78.20
2018-02-08T06:51:08.554Z,77.60
2018-02-08T06:53:36.559Z,77.30
2018-02-08T06:56:04.568Z,77.20
2018-02-08T06:58:32.600Z,78.20
2018-02-08T07:01:00.615Z,78.60
2018-02-08T07:03:28.620Z,77.90
2018-02-08T07:05:57.436Z,77.20
2018-02-08T07:08:26.230Z,77.00
2018-02-08T07:10:54.219Z,77.00
2018-02-08T07:13:23.000Z,76.70
2018-02-08T07:15:51.020Z,76.60
2018-02-08T07:18:19.016Z,75.50
2018-02-08T07:20:47.036Z,75.50
2018-02-08T07:23:15.061Z,74.70
2018-02-08T07:25:43.819Z,75.00
2018-02-08T07:28:11.840Z,74.90
2018-02-08T07:30:40.620Z,75.10
2018-02-08T07:33:08.623Z,75.00
2018-02-08T07:35:37.406Z,74.00
2018-02-08T07:38:05.416Z,73.90
2018-02-08T07:40:34.196Z,73.90
2018-02-08T07:43:02.207Z,73.10
2018-02-08T07:45:30.221Z,73.30
2018-02-08T07:47:58.211Z,73.20
2018-02-08T07:50:26.232Z,72.90
2018-02-08T07:52:55.012Z,72.00
2018-02-08T07:55:23.013Z,71.30
2018-02-08T07:57:51.020Z,70.50
2018-02-08T08:00:19.039Z,70.50
2018-02-08T08:02:47.052Z,70.60
2018-02-08T08:05:15.060Z,70.50
2018-02-08T08:07:43.839Z,69.50
2018-02-08T08:10:11.833Z,69.50
2018-02-08T08:12:40.611Z,68.60
2018-02-08T08:15:08.625Z,68.60
2018-02-08T08:17:37.396Z,68.20
2018-02-08T08:20:05.401Z,68.10
2018-02-08T08:22:34.184Z,68.00
2018-02-08T08:25:02.189Z,67.80
2018-02-08T08:27:30.972Z,67.10
2018-02-08T08:29:58.991Z,67.10
2018-02-08T08:32:27.007Z,67.70
2018-02-08T08:34:55.020Z,67.20
2018-02-08T08:37:23.029Z,66.90
2018-02-08T08:39:51.794Z,67.10
2018-02-08T08:42:19.808Z,67.00
2018-02-08T08:44:48.575Z,64.70
2018-02-08T08:47:16.569Z,64.50
2018-02-08T08:49:44.575Z,65.60
2018-02-08T08:52:12.584Z,66.20
2018-02-08T08:54:40.576Z,66.90
2018-02-08T08:57:08.596Z,66.90
2018-02-08T08:59:36.611Z,65.70
2018-02-08T09:02:05.368Z,64.40
2018-02-08T09:04:33.380Z,64.40
2018-02-08T09:07:02.156Z,64.50
2018-02-08T09:09:30.139Z,64.40
2018-02-08T09:11:58.814Z,64.50
2018-02-08T09:14:26.828Z,64.50
2018-02-08T09:16:54.815Z,64.50
2018-02-08T09:19:22.827Z,64.50
2018-02-08T09:21:51.617Z,63.20
2018-02-08T09:24:20.380Z,63.80
2018-02-08T09:26:48.384Z,63.70
2018-02-08T09:29:17.165Z,62.40
2018-02-08T09:31:45.157Z,62.50
2018-02-08T09:34:13.196Z,63.00
2018-02-08T09:36:41.209Z,65.60
2018-02-08T09:39:09.199Z,64.70
2018-02-08T09:41:37.207Z,65.20
2018-02-08T09:44:05.996Z,64.10
2018-02-08T09:46:33.980Z,64.70
2018-02-08T09:49:01.984Z,62.50
2018-02-08T09:51:30.764Z,61.40
2018-02-08T09:53:58.772Z,61.30
2018-02-08T09:56:27.539Z,61.40
2018-02-08T09:58:55.542Z,61.20
2018-02-08T10:01:24.296Z,60.70
2018-02-08T10:03:52.316Z,60.60
2018-02-08T10:06:20.328Z,59.80
2018-02-08T10:08:48.324Z,59.60
2018-02-08T10:11:16.332Z,60.40
2018-02-08T10:13:44.349Z,61.60
2018-02-08T10:16:13.152Z,58.30
2018-02-08T10:18:41.240Z,58.20
2018-02-08T10:21:10.948Z,58.70
2018-02-08T10:23:38.935Z,58.70
2018-02-08T10:26:06.944Z,58.00
2018-02-08T10:28:34.959Z,59.80
2018-02-08T10:31:02.948Z,58.20
2018-02-08T10:33:30.963Z,57.90
2018-02-08T10:35:58.980Z,58.40
2018-02-08T10:38:26.988Z,58.50
2018-02-08T10:40:54.996Z,58.70
2018-02-08T10:43:22.999Z,59.40
2018-02-08T10:45:50.998Z,58.50
2018-02-08T10:48:19.785Z,57.70
2018-02-08T10:50:47.834Z,57.70
2018-02-08T10:53:15.827Z,58.20
2018-02-08T10:55:43.843Z,56.60
2018-02-08T10:58:12.612Z,56.70
2018-02-08T11:00:40.603Z,56.70
2018-02-08T11:03:08.615Z,56.80
2018-02-08T11:05:36.639Z,56.20
2018-02-08T11:08:04.632Z,56.60
2018-02-08T11:10:32.672Z,56.60
2018-02-08T11:13:00.682Z,57.90
2018-02-08T11:15:28.688Z,57.30
2018-02-08T11:17:56.704Z,56.80
2018-02-08T11:20:24.727Z,56.70
2018-02-08T11:22:52.731Z,56.80
2018-02-08T11:25:20.758Z,57.20
2018-02-08T11:27:49.534Z,55.40
2018-02-08T11:30:17.547Z,55.40
2018-02-08T11:32:46.339Z,56.50
2018-02-08T11:35:15.128Z,56.50
2018-02-08T11:37:43.128Z,56.50
2018-02-08T11:40:11.905Z,56.60
2018-02-08T11:42:41.448Z,56.60
2018-02-08T11:45:09.413Z,56.60
2018-02-08T11:47:37.415Z,56.60
2018-02-08T11:50:05.419Z,56.60
2018-02-08T11:52:33.416Z,57.70
2018-02-08T11:55:01.423Z,56.80
2018-02-08T11:57:29.440Z,56.60
2018-02-08T11:59:59.111Z,58.90
2018-02-08T12:02:27.111Z,58.80
2018-02-08T12:04:55.127Z,58.70
2018-02-08T12:07:23.924Z,56.60
2018-02-08T12:09:52.705Z,57.20
2018-02-08T12:12:20.713Z,57.20
2018-02-08T12:14:49.473Z,56.90
2018-02-08T12:17:17.481Z,56.90
2018-02-08T12:19:45.500Z,57.70
2018-02-08T12:22:13.507Z,57.40
2018-02-08T12:24:41.514Z,58.10
2018-02-08T12:27:09.519Z,57.30
2018-02-08T12:29:37.524Z,57.60
2018-02-08T12:32:05.537Z,56.60
2018-02-08T12:34:33.552Z,56.40
2018-02-08T12:37:01.540Z,57.40
2018-02-08T12:39:29.552Z,57.80
2018-02-08T12:41:57.576Z,58.30
2018-02-08T12:44:25.575Z,58.10
2018-02-08T12:46:53.583Z,58.10
2018-02-08T12:49:22.367Z,56.60
2018-02-08T12:51:50.359Z,56.60
2018-02-08T12:54:18.427Z,56.60
2018-02-08T12:56:47.139Z,56.60
2018-02-08T12:59:15.203Z,56.60
2018-02-08T13:01:43.160Z,56.40
2018-02-08T13:04:11.159Z,56.60
2018-02-08T13:06:39.152Z,56.60
2018-02-08T13:09:07.174Z,56.60
2018-02-08T13:11:35.983Z,56.60
2018-02-08T13:14:04.047Z,56.50
2018-02-08T13:16:32.819Z,56.60
2018-02-08T13:19:00.840Z,56.60
2018-02-08T13:21:29.588Z,56.60
2018-02-08T13:23:57.597Z,56.40
2018-02-08T13:26:25.624Z,57.20
2018-02-08T13:28:53.633Z,56.60
2018-02-08T13:31:24.215Z,56.70
2018-02-08T13:33:52.259Z,55.90
2018-02-08T13:36:20.243Z,56.40
2018-02-08T13:38:48.243Z,55.70
2018-02-08T13:41:19.917Z,55.90
2018-02-08T13:43:47.931Z,56.70
2018-02-08T13:46:16.727Z,56.00
2018-02-08T13:48:44.704Z,55.90
2018-02-08T13:51:19.096Z,54.80
2018-02-08T13:53:51.664Z,54.80
2018-02-08T13:56:24.396Z,55.30
2018-02-08T14:01:50.030Z,57.50
2018-02-08T14:04:18.775Z,56.60
2018-02-08T14:06:46.773Z,56.50
2018-02-08T14:09:15.560Z,57.00
2018-02-08T14:11:43.580Z,57.00
2018-02-08T14:14:11.601Z,58.10
2018-02-08T14:16:39.616Z,57.20
2018-02-08T14:19:08.873Z,56.60
2018-02-08T14:21:36.840Z,56.60
2018-02-08T14:24:04.851Z,56.60
2018-02-08T14:26:32.863Z,56.60
2018-02-08T14:29:00.855Z,56.60
2018-02-08T14:31:29.647Z,57.10
2018-02-08T14:33:57.664Z,56.20
2018-02-08T14:36:25.672Z,55.10
2018-02-08T14:38:53.672Z,54.60
2018-02-08T14:41:21.683Z,54.50
2018-02-08T14:43:49.692Z,54.60
2018-02-08T14:46:18.483Z,54.40
2018-02-08T14:48:47.302Z,54.60
2018-02-08T14:51:16.071Z,56.70
2018-02-08T14:53:44.101Z,56.70
2018-02-08T14:56:12.117Z,56.70
2018-02-08T14:58:40.123Z,58.10
2018-02-08T15:01:08.181Z,56.70
2018-02-08T15:03:36.196Z,56.70
2018-02-08T15:06:04.184Z,55.90
2018-02-08T15:08:32.952Z,55.40
2018-02-08T15:11:00.991Z,55.30
2018-02-08T15:13:29.805Z,56.60
2018-02-08T15:15:57.806Z,56.50
2018-02-08T15:18:25.840Z,56.60
2018-02-08T15:20:54.619Z,55.90
2018-02-08T15:23:22.608Z,55.80
2018-02-08T15:25:50.617Z,55.60
2018-02-08T15:28:19.367Z,56.50
2018-02-08T15:30:47.400Z,56.50
2018-02-08T15:33:15.428Z,56.50
2018-02-08T15:35:43.476Z,57.20
2018-02-08T15:38:11.651Z,56.80
2018-02-08T15:40:40.415Z,57.50
2018-02-08T15:43:08.408Z,57.40
2018-02-08T15:45:36.444Z,56.40
2018-02-08T15:48:04.456Z,57.80
2018-02-08T15:50:32.439Z,58.60
2018-02-08T15:53:00.456Z,58.10
2018-02-08T15:55:28.545Z,57.20
2018-02-08T15:57:56.893Z,57.30
2018-02-08T16:00:24.925Z,57.40
2018-02-08T16:02:53.692Z,58.20
2018-02-08T16:05:21.680Z,58.20
2018-02-08T16:07:49.691Z,57.30
2018-02-08T16:10:17.719Z,57.00
2018-02-08T16:12:45.705Z,56.70
2018-02-08T16:15:13.732Z,56.40
2018-02-08T16:17:42.512Z,56.30
2018-02-08T16:20:10.516Z,56.30
2018-02-08T16:22:39.286Z,56.90
2018-02-08T16:25:07.287Z,56.80
2018-02-08T16:27:36.049Z,57.40
2018-02-08T16:30:04.104Z,57.40
2018-02-08T16:32:32.080Z,58.90
2018-02-08T16:35:00.080Z,57.20
2018-02-08T16:37:28.079Z,57.30
2018-02-08T16:39:56.110Z,57.50
2018-02-08T16:42:24.880Z,58.20
2018-02-08T16:44:53.939Z,58.10
2018-02-08T16:47:22.723Z,58.70
2018-02-08T16:49:51.490Z,59.20
2018-02-08T16:52:19.500Z,59.10
2018-02-08T16:54:47.519Z,60.20
2018-02-08T16:57:15.511Z,59.70
2018-02-08T16:59:44.448Z,59.20
2018-02-08T17:02:13.224Z,58.70
2018-02-08T17:04:41.224Z,58.70
2018-02-08T17:07:09.232Z,59.00
2018-02-08T17:09:38.012Z,60.20
2018-02-08T17:12:06.008Z,60.10
2018-02-08T17:14:34.020Z,60.20
2018-02-08T17:17:02.040Z,60.60
2018-02-08T17:19:30.059Z,61.40
2018-02-08T17:21:58.055Z,61.40
2018-02-08T17:24:26.815Z,61.70
2018-02-08T17:26:54.827Z,61.60
2018-02-08T17:29:23.603Z,62.00
2018-02-08T17:31:51.608Z,61.90
2018-02-08T17:34:19.609Z,62.10
2018-02-08T17:36:48.389Z,60.90
2018-02-08T17:39:16.387Z,60.80
2018-02-08T17:41:45.160Z,61.00
2018-02-08T17:44:13.172Z,60.90
2018-02-08T17:46:43.869Z,60.70
2018-02-08T17:49:12.889Z,60.70
2018-02-08T17:51:40.891Z,61.00
2018-02-08T17:54:10.219Z,60.80
2018-02-08T17:56:38.995Z,60.80
2018-02-08T17:59:06.999Z,60.70
2018-02-08T18:01:35.764Z,60.80
2018-02-08T18:04:03.780Z,60.80
2018-02-08T18:06:32.559Z,61.50
2018-02-08T18:09:00.555Z,61.40
2018-02-08T18:11:28.577Z,61.60
2018-02-08T18:13:56.588Z,61.10
2018-02-08T18:16:24.600Z,61.40
2018-02-08T18:18:52.612Z,60.90
2018-02-08T18:21:20.627Z,60.60
2018-02-08T18:23:48.627Z,60.40
2018-02-08T18:26:16.669Z,61.20
2018-02-08T18:28:44.700Z,61.20
2018-02-08T18:31:12.729Z,61.10
2018-02-08T18:33:40.836Z,60.10
2018-02-08T18:36:09.699Z,61.60
2018-02-08T18:38:38.464Z,62.30
2018-02-08T18:41:06.479Z,62.30
2018-02-08T18:43:35.261Z,63.20
2018-02-08T18:46:03.257Z,63.10
2018-02-08T18:48:31.263Z,62.10
2018-02-08T18:50:59.284Z,62.80
2018-02-08T18:53:27.272Z,61.50
2018-02-08T18:55:55.289Z,61.40
2018-02-08T18:58:24.073Z,61.30
2018-02-08T19:00:52.079Z,61.30
2018-02-08T19:03:20.844Z,60.90
2018-02-08T19:05:48.866Z,61.30
2018-02-08T19:08:17.634Z,61.00
2018-02-08T19:10:45.651Z,61.00
2018-02-08T19:13:14.482Z,61.90
2018-02-08T19:15:42.495Z,62.00
2018-02-08T19:18:10.525Z,62.60
2018-02-08T19:20:38.771Z,62.10
2018-02-08T19:23:06.768Z,62.10
2018-02-08T19:25:35.572Z,63.50
2018-02-08T19:28:03.603Z,63.40
2018-02-08T19:30:31.609Z,62.90
2018-02-08T19:32:59.639Z,63.20
2018-02-08T19:35:27.664Z,62.70
2018-02-08T19:37:55.656Z,62.40
2018-02-08T19:40:23.691Z,62.60
2018-02-08T19:42:51.724Z,62.20
2018-02-08T19:45:19.839Z,62.60
2018-02-08T19:47:48.629Z,62.80
2018-02-08T19:50:17.451Z,62.60
2018-02-08T19:52:45.523Z,62.50
2018-02-08T19:55:13.548Z,62.80
2018-02-08T19:57:41.569Z,63.20
2018-02-08T20:00:10.359Z,63.00
2018-02-08T20:02:38.369Z,63.00
2018-02-08T20:05:06.381Z,63.30
2018-02-08T20:07:35.135Z,63.60
2018-02-08T20:10:03.227Z,63.60
2018-02-08T20:12:31.212Z,63.20
2018-02-08T20:14:59.191Z,62.90
2018-02-08T20:17:27.224Z,62.90
2018-02-08T20:19:55.232Z,62.90
2018-02-08T20:22:23.236Z,63.20
2018-02-08T20:24:51.255Z,63.50
2018-02-08T20:27:19.267Z,63.40
2018-02-08T20:29:47.271Z,63.20
2018-02-08T20:32:15.283Z,63.60
2018-02-08T20:34:43.311Z,64.20
2018-02-08T20:37:11.307Z,64.20
2018-02-08T20:39:39.320Z,64.20
2018-02-08T20:42:07.344Z,64.20
2018-02-08T20:44:36.153Z,64.60
2018-02-08T20:47:04.128Z,64.50
2018-02-08T20:49:32.246Z,64.80
2018-02-08T20:52:00.264Z,65.30
2018-02-08T20:54:28.952Z,64.90
2018-02-08T20:56:57.010Z,65.20
2018-02-08T20:59:25.013Z,65.40
2018-02-08T21:01:53.061Z,65.80
2018-02-08T21:04:21.086Z,66.30
2018-02-08T21:06:49.253Z,66.30
2018-02-08T21:09:17.269Z,66.00
2018-02-08T21:11:45.415Z,66.10
2018-02-08T21:14:13.509Z,66.50
2018-02-08T21:16:41.548Z,66.70
2018-02-08T21:19:10.331Z,67.00
2018-02-08T21:21:38.336Z,67.00
2018-02-08T21:24:06.371Z,67.40
2018-02-08T21:26:34.421Z,67.60
2018-02-08T21:29:02.461Z,67.90
2018-02-08T21:31:30.500Z,68.30
2018-02-08T21:33:58.503Z,68.90
2018-02-08T21:36:26.511Z,69.20
2018-02-08T21:38:55.295Z,69.00
2018-02-08T21:41:23.310Z,68.90
2018-02-08T21:43:52.104Z,69.00
2018-02-08T21:46:20.892Z,69.00
2018-02-08T21:48:48.908Z,68.90
2018-02-08T21:51:16.904Z,69.20
2018-02-08T21:53:44.916Z,69.00
2018-02-08T21:56:12.982Z,68.90
2018-02-08T21:58:40.987Z,68.90
2018-02-08T22:01:09.003Z,68.90
2018-02-08T22:03:37.792Z,68.90
2018-02-08T22:06:05.787Z,68.80
2018-02-08T22:08:34.564Z,68.60
2018-02-08T22:11:02.580Z,68.50
2018-02-08T22:13:31.348Z,68.80
2018-02-08T22:15:59.368Z,68.80
2018-02-08T22:18:28.148Z,69.20
2018-02-08T22:20:56.147Z,69.90
2018-02-08T22:23:24.927Z,69.30
2018-02-08T22:25:52.939Z,69.30
2018-02-08T22:28:20.944Z,70.00
2018-02-08T22:30:48.954Z,70.30
2018-02-08T22:33:16.982Z,70.20
2018-02-08T22:35:45.763Z,70.70
2018-02-08T22:38:14.580Z,70.70
2018-02-08T22:40:43.379Z,71.10
2018-02-08T22:43:12.991Z,72.10
2018-02-08T22:45:41.783Z,73.80
2018-02-08T22:48:09.808Z,73.70
2018-02-08T22:50:37.800Z,73.90
2018-02-08T22:53:05.825Z,73.80
2018-02-08T22:55:33.848Z,74.10
2018-02-08T22:58:01.856Z,73.70
2018-02-08T23:00:29.904Z,73.80
2018-02-08T23:02:58.679Z,74.00
2018-02-08T23:05:27.464Z,74.00
2018-02-08T23:07:55.480Z,73.70
2018-02-08T23:10:24.258Z,73.50
2018-02-08T23:12:52.261Z,73.40
2018-02-08T23:15:20.264Z,73.40
2018-02-08T23:17:48.283Z,73.50
2018-02-08T23:20:16.312Z,74.50
2018-02-08T23:22:45.098Z,75.70
2018-02-08T23:25:13.123Z,75.70
2018-02-08T23:27:41.176Z,76.20
2018-02-08T23:30:09.968Z,76.10
2018-02-08T23:32:37.984Z,76.10
2018-02-08T23:35:05.984Z,76.60
2018-02-08T23:37:34.008Z,76.20
2018-02-08T23:40:02.043Z,76.50
2018-02-08T23:42:30.042Z,76.40
2018-02-08T23:44:58.048Z,76.20
2018-02-08T23:47:26.060Z,75.80
2018-02-08T23:49:54.819Z,76.50
2018-02-08T23:52:22.837Z,76.40
2018-02-08T23:54:51.648Z,76.30
2018-02-08T23:57:20.414Z,75.30
2018-02-08T23:59:48.424Z,75.20
